Time;durP1;ratioP1;P1;durP2;ratioP2;P2;SDS_P1;SDS_P2;PMS_P1;PMS_P2;Temp;Humidity;BMP_temperature;BMP_pressure;BME280_temperature;BME280_humidity;BME280_pressure;Samples;Min_cycle;Max_cycle;Signal;HPM_P1;HPM_P2
2022/11/25 00:00:24;;;;;;;102.88;59.38;;;;;;;15.74;71.04;99060.66;5047355;28;20060;-63
2022/11/25 00:03:13;;;;;;;111.68;60.30;;;;;;;15.54;71.29;99057.50;5043540;28;20149;-63
2022/11/25 00:06:19;;;;;;;112.60;59.53;;;;;;;15.40;72.67;99060.47;5047904;28;20080;-63
2022/11/25 00:09:07;;;;;;;104.63;60.75;;;;;;;15.51;72.40;99069.59;5025473;28;20693;-65
2022/11/25 00:11:56;;;;;;;113.78;60.90;;;;;;;15.36;71.96;99075.53;5047524;28;20041;-63
2022/11/25 00:14:45;;;;;;;108.70;60.35;;;;;;;15.24;72.48;99075.50;5047338;28;20049;-63
2022/11/25 00:17:27;;;;;;;105.32;58.65;;;;;;;15.22;73.39;99071.41;5047512;28;22545;-65
2022/11/25 00:20:19;;;;;;;106.85;60.90;;;;;;;15.44;72.93;99079.75;5046852;28;20754;-64
2022/11/25 00:23:01;;;;;;;108.38;62.28;;;;;;;15.20;72.08;99087.03;5042420;28;20056;-64
2022/11/25 00:25:50;;;;;;;110.07;59.92;;;;;;;15.09;72.88;99085.97;5047235;28;20045;-63
2022/11/25 00:28:48;;;;;;;126.70;64.22;;;;;;;15.12;73.08;99090.09;5039500;28;20064;-64
2022/11/25 00:31:33;;;;;;;116.13;63.08;;;;;;;15.13;72.65;99089.03;5038495;28;20672;-64
2022/11/25 00:34:21;;;;;;;115.40;66.25;;;;;;;15.01;72.35;99097.13;5029076;28;20114;-64
2022/11/25 00:37:03;;;;;;;117.90;64.88;;;;;;;15.23;72.85;99097.41;5046673;28;20528;-64
2022/11/25 00:39:52;;;;;;;122.28;67.97;;;;;;;15.29;71.86;99101.84;5046903;28;20045;-64
2022/11/25 00:45:43;;;;;;;128.07;66.35;;;;;;;14.91;72.45;99121.22;5045954;28;20060;-63
2022/11/25 00:48:32;;;;;;;126.95;69.47;;;;;;;14.99;73.48;99127.09;5046721;28;20665;-63
2022/11/25 00:51:14;;;;;;;148.13;74.85;;;;;;;14.92;72.61;99123.66;5041384;28;20048;-63
2022/11/25 00:54:03;;;;;;;141.82;75.45;;;;;;;15.01;73.02;99133.09;5049398;28;20131;-63
2022/11/25 00:56:52;;;;;;;149.00;77.75;;;;;;;15.15;72.10;99128.31;5038509;28;20055;-63
2022/11/25 00:59:41;;;;;;;159.68;78.97;;;;;;;14.88;72.19;99133.28;5045147;28;20049;-63
2022/11/25 01:02:26;;;;;;;156.65;78.65;;;;;;;14.86;72.41;99140.81;5045697;28;20347;-64
2022/11/25 01:05:18;;;;;;;163.95;78.60;;;;;;;14.80;73.15;99142.56;5045251;28;20103;-64
2022/11/25 01:08:00;;;;;;;143.93;77.45;;;;;;;14.93;73.06;99148.84;5045349;28;20045;-64
2022/11/25 01:11:00;;;;;;;154.45;77.30;;;;;;;14.82;72.05;99153.13;5045590;28;20045;-63
2022/11/25 01:13:42;;;;;;;164.88;82.78;;;;;;;14.80;72.30;99160.66;5045725;28;20041;-63
2022/11/25 01:16:43;;;;;;;143.38;75.93;;;;;;;14.62;72.43;99162.34;5037848;28;20045;-63
2022/11/25 01:19:19;;;;;;;142.88;77.60;;;;;;;14.37;73.12;99159.75;5034848;28;20059;-64
2022/11/25 01:22:15;;;;;;;154.07;78.93;;;;;;;14.38;73.44;99176.78;5046195;28;20037;-64
2022/11/25 01:24:51;;;;;;;157.20;76.50;;;;;;;14.20;73.72;99173.06;5045018;28;20083;-64
2022/11/25 01:27:41;;;;;;;;;;;;;;;14.45;73.09;99177.53;5011762;28;20072;-64
2022/11/25 01:30:32;;;;;;;150.82;77.55;;;;;;;14.33;73.67;99184.72;5045085;28;19924;-64
2022/11/25 01:33:21;;;;;;;168.73;83.88;;;;;;;14.17;73.65;99181.59;5047104;28;20060;-65
2022/11/25 01:36:16;;;;;;;161.30;82.00;;;;;;;14.05;74.29;99173.44;5044237;28;20053;-66
2022/11/25 01:39:05;;;;;;;160.20;82.70;;;;;;;13.95;74.51;99177.69;5045899;28;20128;-63
2022/11/25 01:41:47;;;;;;;157.52;82.57;;;;;;;13.96;74.30;99185.56;5039149;28;20064;-63
2022/11/25 01:44:32;;;;;;;157.48;82.88;;;;;;;14.00;74.34;99194.03;5037529;28;20060;-64
2022/11/25 01:47:23;;;;;;;170.00;83.80;;;;;;;14.01;74.22;99190.31;5027060;28;20143;-63
2022/11/25 01:50:16;;;;;;;168.07;85.82;;;;;;;14.02;73.69;99200.03;5039284;28;20041;-64
2022/11/25 01:53:15;;;;;;;173.70;85.55;;;;;;;14.33;73.63;99203.63;5044060;28;20047;-65
2022/11/25 01:55:57;;;;;;;177.60;87.93;;;;;;;14.56;72.13;99216.44;5047843;28;20587;-64
2022/11/25 01:58:54;;;;;;;191.48;93.45;;;;;;;14.41;72.02;99220.34;5023825;28;20053;-65
2022/11/25 02:01:30;;;;;;;206.90;96.95;;;;;;;14.43;72.28;99220.97;5044301;28;20488;-64
2022/11/25 02:04:21;;;;;;;184.95;93.72;;;;;;;14.68;72.02;99225.47;5039917;28;20069;-64
2022/11/25 02:07:11;;;;;;;201.70;96.78;;;;;;;14.57;71.80;99232.44;5027635;28;20057;-65
2022/11/25 02:10:01;;;;;;;202.10;98.90;;;;;;;14.56;72.04;99243.44;5024645;28;20076;-64
2022/11/25 02:12:47;;;;;;;210.77;101.18;;;;;;;14.61;75.30;99243.63;5044896;28;20249;-64
2022/11/25 02:15:36;;;;;;;197.93;101.70;;;;;;;14.71;72.79;99235.78;5041082;28;20114;-63
2022/11/25 02:18:18;;;;;;;198.73;100.07;;;;;;;14.92;73.30;99239.88;5044937;28;20055;-64
2022/11/25 02:21:08;;;;;;;213.00;101.93;;;;;;;14.93;73.62;99246.94;5007327;28;20040;-64
2022/11/25 02:24:17;;;;;;;215.43;102.43;;;;;;;15.12;72.40;99252.28;5007347;28;20050;-65
2022/11/25 02:27:14;;;;;;;197.30;100.88;;;;;;;15.39;72.29;99261.66;5026460;28;20535;-65
2022/11/25 02:29:56;;;;;;;220.48;103.88;;;;;;;15.41;73.05;99267.63;5025251;28;20051;-65
2022/11/25 02:32:50;;;;;;;204.57;103.13;;;;;;;15.51;72.31;99268.97;5060241;28;20223;-65
2022/11/25 02:35:34;;;;;;;201.45;103.10;;;;;;;15.70;73.00;99275.09;5027025;28;20455;-65
2022/11/25 02:38:31;;;;;;;217.63;102.60;;;;;;;15.78;72.65;99272.91;5026566;28;20053;-66
2022/11/25 02:41:21;;;;;;;206.27;103.15;;;;;;;15.80;72.86;99270.81;5026434;28;20574;-65
2022/11/25 02:44:11;;;;;;;211.32;105.00;;;;;;;15.89;71.63;99270.44;5027143;28;20045;-65
2022/11/25 02:47:06;;;;;;;221.88;110.93;;;;;;;15.99;71.83;99276.94;5040637;28;20461;-65
2022/11/25 02:49:42;;;;;;;213.73;104.47;;;;;;;16.05;72.39;99277.88;5038144;28;20068;-65
2022/11/25 02:52:31;;;;;;;227.53;114.20;;;;;;;16.14;69.95;99272.91;5043610;28;20655;-65
2022/11/25 02:55:15;;;;;;;219.20;107.95;;;;;;;16.11;72.27;99287.75;5034137;28;20476;-64
2022/11/25 02:58:10;;;;;;;219.52;108.47;;;;;;;16.37;72.13;99285.59;5061273;28;20052;-65
2022/11/25 03:00:46;;;;;;;222.93;107.68;;;;;;;16.50;72.43;99293.47;5024271;28;20144;-65
2022/11/25 03:03:42;;;;;;;238.63;110.53;;;;;;;16.64;70.85;99294.88;5006785;28;20049;-64
2022/11/25 03:06:18;;;;;;;210.75;111.50;;;;;;;16.69;70.05;99296.03;5026666;28;20373;-64
2022/11/25 03:09:13;;;;;;;228.38;111.85;;;;;;;16.85;70.56;99306.13;5044860;28;20056;-61
2022/11/25 03:15:05;;;;;;;206.00;109.80;;;;;;;16.72;65.55;99306.38;5044464;28;20107;-64
2022/11/25 03:17:41;;;;;;;214.25;106.65;;;;;;;17.27;67.12;99311.28;5044273;28;20056;-66
2022/11/25 03:20:37;;;;;;;212.88;107.90;;;;;;;17.61;68.33;99304.00;5023452;28;20045;-65
2022/11/25 03:23:13;;;;;;;207.38;105.60;;;;;;;17.79;68.40;99330.13;5022725;28;20068;-64
2022/11/25 03:26:12;;;;;;;212.88;107.90;;;;;;;18.12;65.50;99327.69;5023221;28;20049;-65
2022/11/25 03:28:48;;;;;;;215.98;107.80;;;;;;;18.00;61.79;99335.91;5038687;28;20146;-66
2022/11/25 03:31:45;;;;;;;197.98;104.22;;;;;;;18.50;62.10;99340.47;5027546;28;20053;-65
2022/11/25 03:34:34;;;;;;;207.65;106.60;;;;;;;18.85;61.75;99339.31;5033767;28;20037;-65
2022/11/25 03:37:24;;;;;;;204.40;103.80;;;;;;;19.10;64.96;99344.22;5031069;28;20455;-64
2022/11/25 03:40:22;;;;;;;209.05;107.50;;;;;;;19.67;62.15;99347.53;5043754;28;20132;-63
2022/11/25 03:42:58;;;;;;;207.18;110.95;;;;;;;19.99;58.49;99354.94;5046622;28;20049;-63
2022/11/25 03:45:50;;;;;;;207.88;108.50;;;;;;;20.39;60.62;99348.97;5045552;28;20051;-63
2022/11/25 03:48:33;;;;;;;210.13;109.32;;;;;;;20.66;58.08;99358.97;5029873;28;20130;-64
2022/11/25 03:51:28;;;;;;;202.85;108.18;;;;;;;21.18;57.62;99358.09;5020383;28;20057;-65
2022/11/25 03:54:04;;;;;;;196.02;107.45;;;;;;;21.64;54.60;99360.94;5029495;28;20045;-65
2022/11/25 03:57:19;;;;;;;205.68;112.30;;;;;;;22.17;51.70;99360.69;5026789;28;20071;-65
2022/11/25 04:00:01;;;;;;;205.55;110.25;;;;;;;22.32;51.67;99362.63;5045102;28;20535;-64
2022/11/25 04:03:01;;;;;;;200.10;114.78;;;;;;;22.50;53.46;99363.16;5045809;28;20033;-61
2022/11/25 04:05:43;;;;;;;230.32;119.15;;;;;;;22.50;52.02;99365.88;5043599;28;20069;-61
2022/11/25 04:08:39;;;;;;;221.90;116.78;;;;;;;22.69;51.58;99369.66;5046083;28;20045;-62
2022/11/25 04:11:15;;;;;;;218.95;115.82;;;;;;;22.92;47.66;99370.94;5025642;28;20041;-63
2022/11/25 04:14:11;;;;;;;222.02;114.47;;;;;;;23.20;46.61;99377.72;5022681;28;20037;-62
2022/11/25 04:16:47;;;;;;;205.18;118.95;;;;;;;23.16;50.64;99376.66;5025608;28;20045;-62
2022/11/25 04:19:43;;;;;;;224.70;118.95;;;;;;;23.57;49.38;99375.59;5044661;28;20714;-61
2022/11/25 04:22:19;;;;;;;215.63;118.85;;;;;;;23.48;51.68;99382.78;5046852;28;20473;-62
2022/11/25 04:25:17;;;;;;;212.63;121.10;;;;;;;23.31;50.01;99374.91;5028489;28;20044;-63
2022/11/25 04:27:54;;;;;;;226.93;118.95;;;;;;;23.02;50.45;99389.25;5026529;28;20045;-61
2022/11/25 04:30:50;;;;;;;214.95;122.43;;;;;;;23.54;52.02;99385.22;5042597;28;20140;-62
2022/11/25 04:33:27;;;;;;;219.25;120.82;;;;;;;23.59;50.67;99385.16;5028949;28;20123;-60
2022/11/25 04:36:23;;;;;;;221.85;125.13;;;;;;;23.49;49.13;99387.16;5028155;28;20052;-63
2022/11/25 04:38:59;;;;;;;221.45;124.78;;;;;;;23.50;51.11;99389.59;5029478;28;20642;-65
2022/11/25 04:41:48;;;;;;;229.00;127.25;;;;;;;23.74;50.16;99383.44;5028140;28;20747;-64
2022/11/25 04:44:37;;;;;;;250.00;133.50;;;;;;;23.69;52.85;99394.41;5002366;28;20065;-63
2022/11/25 04:47:19;;;;;;;245.68;135.70;;;;;;;23.96;48.34;99389.34;5044347;28;20056;-63
2022/11/25 04:50:11;;;;;;;248.57;136.52;;;;;;;23.95;51.02;99390.44;5044142;28;20576;-64
2022/11/25 04:53:11;;;;;;;250.45;139.88;;;;;;;24.01;50.69;99391.22;5016495;28;20060;-63
2022/11/25 04:56:01;;;;;;;259.40;145.43;;;;;;;24.33;46.91;99392.59;5014651;28;20477;-65
2022/11/25 05:01:56;;;;;;;252.10;142.18;;;;;;;24.36;47.28;99392.84;5029873;28;20143;-64
2022/11/25 05:04:46;;;;;;;263.15;145.90;;;;;;;24.24;51.36;99393.19;5004440;28;20053;-64
2022/11/25 05:07:36;;;;;;;270.67;141.80;;;;;;;24.11;50.64;99391.13;5008629;28;20041;-65
2022/11/25 05:10:20;;;;;;;259.63;142.63;;;;;;;24.35;50.63;99402.16;5022065;28;20456;-62
2022/11/25 05:13:09;;;;;;;243.93;136.63;;;;;;;24.08;47.99;99394.44;5025233;28;20225;-63
2022/11/25 05:15:51;;;;;;;236.90;131.15;;;;;;;24.37;47.56;99397.19;5017113;28;20069;-65
2022/11/25 05:18:41;;;;;;;226.57;126.93;;;;;;;24.33;49.47;99401.63;5041170;28;20059;-63
2022/11/25 05:21:23;;;;;;;247.15;129.52;;;;;;;23.92;45.01;99393.75;5038180;28;20045;-64
2022/11/25 05:24:12;;;;;;;229.07;125.90;;;;;;;24.57;47.82;99384.41;5023615;28;20059;-61
2022/11/25 05:26:57;;;;;;;230.85;126.38;;;;;;;24.84;43.22;99388.53;5022655;28;20041;-57
2022/11/25 05:29:47;;;;;;;222.18;124.55;;;;;;;24.84;47.30;99396.75;5023692;28;20045;-59
2022/11/25 05:32:35;;;;;;;213.02;122.55;;;;;;;24.98;46.42;99389.47;5023012;28;20055;-62
2022/11/25 05:35:26;;;;;;;235.95;121.95;;;;;;;24.96;46.89;99389.75;5039483;28;20449;-60
2022/11/25 05:38:08;;;;;;;216.50;119.32;;;;;;;25.51;48.35;99385.78;5024660;28;20408;-59
2022/11/25 05:40:59;;;;;;;228.10;122.38;;;;;;;25.70;46.29;99375.63;5022614;28;20045;-60
2022/11/25 05:43:41;;;;;;;215.63;119.57;;;;;;;25.59;48.01;99374.13;5028500;28;20179;-56
2022/11/25 05:46:30;;;;;;;213.45;118.85;;;;;;;25.71;45.67;99379.97;5020415;28;20044;-59
2022/11/25 05:49:26;;;;;;;204.10;109.40;;;;;;;25.90;44.77;99376.41;5028169;28;20745;-64
2022/11/25 05:52:02;;;;;;;191.60;105.45;;;;;;;25.85;45.78;99373.72;5040136;28;20526;-65
2022/11/25 05:54:58;;;;;;;209.52;112.90;;;;;;;25.73;41.14;99375.00;5024260;28;20048;-65
2022/11/25 05:57:40;;;;;;;218.43;114.43;;;;;;;26.05;43.12;99369.88;5036294;28;20132;-61
2022/11/25 06:00:36;;;;;;;175.68;98.40;;;;;;;26.03;45.13;99369.38;5021716;28;20045;-64
2022/11/25 06:03:12;;;;;;;173.55;92.78;;;;;;;26.06;40.21;99366.00;5021539;28;20518;-61
2022/11/25 06:06:01;;;;;;;173.43;92.38;;;;;;;26.30;40.71;99361.19;5022447;28;20346;-64
2022/11/25 06:08:51;;;;;;;155.77;86.22;;;;;;;26.38;43.63;99363.22;5020852;28;20071;-62
2022/11/25 06:11:42;;;;;;;128.05;72.05;;;;;;;26.36;39.51;99348.94;5038238;28;20055;-63
2022/11/25 06:14:24;;;;;;;126.53;69.95;;;;;;;26.30;41.34;99354.88;5021078;28;20139;-61
2022/11/25 06:17:13;;;;;;;124.85;70.65;;;;;;;26.45;42.43;99353.78;5022351;28;20745;-63
2022/11/25 06:20:14;;;;;;;133.25;70.65;;;;;;;26.40;41.79;99353.84;5008735;28;20056;-64
2022/11/25 06:22:58;;;;;;;146.30;75.60;;;;;;;26.50;43.49;99353.66;5022471;28;20772;-64
2022/11/25 06:25:47;;;;;;;152.02;78.10;;;;;;;26.54;44.26;99351.94;5021559;28;20535;-64
2022/11/25 06:28:42;;;;;;;127.53;72.45;;;;;;;26.74;44.26;99342.50;5022198;28;20136;-63
2022/11/25 06:31:32;;;;;;;133.50;67.13;;;;;;;26.76;41.06;99341.06;5033041;28;20052;-64
2022/11/25 06:34:56;;;;;;;116.60;63.85;;;;;;;26.50;39.27;99337.97;4992034;28;20049;-64
2022/11/25 06:37:50;;;;;;;134.90;69.50;;;;;;;26.69;43.88;99326.91;4996750;28;20484;-62
2022/11/25 06:40:39;;;;;;;136.60;66.28;;;;;;;26.36;38.84;99324.19;5019306;28;20049;-63
2022/11/25 06:43:28;;;;;;;133.82;69.15;;;;;;;26.55;40.75;99323.28;5019574;28;20054;-64
2022/11/25 06:46:15;;;;;;;120.90;68.10;;;;;;;26.75;41.11;99311.91;5020098;28;20049;-64
2022/11/25 06:49:06;;;;;;;122.43;66.15;;;;;;;26.48;42.53;99311.88;5021198;28;20049;-62
2022/11/25 06:51:51;;;;;;;114.22;61.75;;;;;;;26.08;37.66;99301.34;5020662;28;20469;-66
2022/11/25 06:54:40;;;;;;;113.50;61.75;;;;;;;26.45;40.73;99295.97;5021493;28;20049;-67
2022/11/25 06:57:22;;;;;;;107.03;58.78;;;;;;;26.45;40.68;99296.78;5019397;28;20064;-68
2022/11/25 07:00:12;;;;;;;96.43;57.47;;;;;;;26.48;39.21;99290.69;5003817;28;21256;-66
2022/11/25 07:02:54;;;;;;;108.53;56.97;;;;;;;26.45;40.31;99290.47;5021340;28;20045;-67
2022/11/25 07:05:43;;;;;;;93.53;55.50;;;;;;;26.50;40.83;99282.94;5022137;28;20130;-68
2022/11/25 07:08:26;;;;;;;97.63;56.17;;;;;;;26.62;38.70;99287.94;5026895;28;20580;-71
2022/11/25 07:11:30;;;;;;;98.70;58.08;;;;;;;26.98;39.57;99281.69;5021688;28;20142;-66
2022/11/25 07:14:14;;;;;;;103.93;56.20;;;;;;;26.99;40.18;99283.31;5020749;28;20057;-66
2022/11/25 07:17:04;;;;;;;103.63;57.03;;;;;;;26.88;39.51;99279.94;5010240;28;20164;-68
2022/11/25 07:19:51;;;;;;;101.03;58.83;;;;;;;27.08;38.17;99273.19;5012148;28;20053;-64
2022/11/25 07:22:40;;;;;;;106.38;60.97;;;;;;;26.88;39.95;99271.69;5023409;28;20045;-65
2022/11/25 07:25:22;;;;;;;106.15;58.33;;;;;;;26.81;39.95;99275.97;5012478;28;20056;-66
2022/11/25 07:28:11;;;;;;;92.65;56.47;;;;;;;26.85;38.58;99272.31;5010234;28;20061;-66
2022/11/25 07:30:54;;;;;;;92.82;57.92;;;;;;;26.95;38.00;99260.28;5007561;28;20049;-67
2022/11/25 07:34:09;;;;;;;103.70;57.75;;;;;;;26.55;38.16;99268.25;5042258;28;20130;-68
2022/11/25 07:36:51;;;;;;;104.95;56.55;;;;;;;26.65;39.33;99268.03;5010088;28;20042;-65
2022/11/25 07:39:40;;;;;;;87.47;54.05;;;;;;;26.93;38.21;99265.28;5038038;28;20053;-65
2022/11/25 07:42:22;;;;;;;97.72;53.88;;;;;;;26.86;39.93;99267.63;5046613;28;20053;-68
2022/11/25 07:45:15;;;;;;;100.85;55.85;;;;;;;26.78;38.69;99260.09;5043236;28;20098;-66
2022/11/25 07:48:10;;;;;;;91.13;56.33;;;;;;;26.86;38.17;99257.41;5036724;28;20064;-67
2022/11/25 07:50:59;;;;;;;107.20;58.08;;;;;;;26.76;38.58;99247.44;5039892;28;20045;-68
2022/11/25 07:53:42;;;;;;;91.97;54.78;;;;;;;26.76;38.97;99241.94;5037364;28;20057;-68
2022/11/25 07:56:30;;;;;;;92.57;53.45;;;;;;;26.79;38.94;99243.28;5042489;28;20065;-65
2022/11/25 07:59:15;;;;;;;96.32;54.90;;;;;;;26.94;37.90;99253.94;5041526;28;20554;-67
2022/11/25 08:02:04;;;;;;;102.47;59.95;;;;;;;26.91;38.43;99231.72;5040584;28;20136;-68
2022/11/25 08:04:46;;;;;;;107.72;57.92;;;;;;;26.90;39.08;99238.34;5043967;28;20048;-68
2022/11/25 08:07:35;;;;;;;92.32;58.92;;;;;;;27.05;37.70;99238.00;5036502;28;20118;-65
2022/11/25 08:10:18;;;;;;;94.75;55.83;;;;;;;27.13;38.66;99237.28;5044295;28;20053;-66
2022/11/25 08:13:07;;;;;;;88.80;53.13;;;;;;;26.91;38.26;99231.72;5044546;28;20045;-65
2022/11/25 08:15:59;;;;;;;80.57;50.22;;;;;;;26.85;36.88;99224.69;5044637;28;20045;-65
2022/11/25 08:18:41;;;;;;;93.40;53.15;;;;;;;26.88;37.62;99222.13;5027487;28;20128;-68
2022/11/25 08:21:36;;;;;;;75.97;47.42;;;;;;;27.00;37.86;99218.84;5019018;28;20049;-67
2022/11/25 08:24:17;;;;;;;83.95;49.30;;;;;;;27.03;37.01;99211.88;5044982;28;20052;-65
2022/11/25 08:27:06;;;;;;;81.57;48.47;;;;;;;26.91;38.00;99204.19;5044635;28;20095;-67
2022/11/25 08:29:48;;;;;;;76.82;46.42;;;;;;;26.96;37.85;99198.53;5043939;28;20055;-67
2022/11/25 08:32:44;;;;;;;77.47;47.17;;;;;;;26.80;39.21;99202.78;5042632;28;20049;-66
2022/11/25 08:35:36;;;;;;;72.47;45.53;;;;;;;26.80;39.96;99191.75;5044338;28;20044;-67
2022/11/25 08:38:25;;;;;;;70.53;41.47;;;;;;;26.91;39.52;99193.16;5041977;28;20144;-65
2022/11/25 08:41:35;;;;;;;72.87;40.23;;;;;;;26.96;36.98;99187.50;5038444;28;20045;-64
2022/11/25 08:44:27;;;;;;;70.90;38.15;;;;;;;26.82;38.94;99187.56;5042470;28;20068;-65
2022/11/25 08:47:09;;;;;;;58.03;35.30;;;;;;;26.73;38.37;99182.00;5041999;28;20056;-66
2022/11/25 08:49:53;;;;;;;50.58;31.95;;;;;;;26.68;35.96;99176.59;5023036;28;20111;-66
2022/11/25 08:52:42;;;;;;;59.88;32.20;;;;;;;26.78;37.00;99172.78;5037967;28;20060;-65
2022/11/25 08:55:31;;;;;;;56.13;29.45;;;;;;;26.70;37.28;99170.78;5040255;28;20045;-67
2022/11/25 08:58:20;;;;;;;44.53;27.65;;;;;;;26.67;35.73;99163.94;5041642;28;20586;-65
2022/11/25 09:01:10;;;;;;;41.75;25.13;;;;;;;26.79;34.34;99159.81;5041229;28;20150;-67
2022/11/25 09:03:55;;;;;;;50.22;27.27;;;;;;;26.50;35.37;99161.81;5043444;28;20132;-68
2022/11/25 09:06:50;;;;;;;41.47;24.13;;;;;;;26.47;35.44;99156.94;5040750;28;20118;-65
2022/11/25 09:09:26;;;;;;;37.95;22.05;;;;;;;26.58;35.19;99160.28;5007128;28;20045;-62
2022/11/25 09:12:15;;;;;;;41.17;23.55;;;;;;;26.64;34.89;99158.25;5037793;28;20049;-65
2022/11/25 09:14:57;;;;;;;49.38;24.92;;;;;;;26.58;34.47;99152.03;5044042;28;20037;-65
2022/11/25 09:17:53;;;;;;;66.20;25.38;;;;;;;26.56;35.54;99154.28;5037474;28;20103;-63
2022/11/25 09:20:31;;;;;;;55.88;25.00;;;;;;;26.51;35.70;99157.13;5027201;28;20064;-60
2022/11/25 09:23:23;;;;;;;43.42;22.45;;;;;;;26.57;35.19;99148.44;5045124;28;20044;-64
2022/11/25 09:26:09;;;;;;;47.05;22.42;;;;;;;26.49;35.05;99142.88;5019299;28;20593;-61
2022/11/25 09:29:05;;;;;;;48.05;22.25;;;;;;;26.48;35.41;99146.72;5043404;28;20056;-63
2022/11/25 09:32:00;;;;;;;36.40;22.50;;;;;;;26.42;36.23;99147.97;5037147;28;20481;-63
2022/11/25 09:34:36;;;;;;;47.90;23.40;;;;;;;26.37;37.47;99137.91;5047423;28;20127;-62
2022/11/25 09:37:32;;;;;;;47.55;26.55;;;;;;;26.33;37.15;99137.69;5043010;28;20049;-65
2022/11/25 09:40:26;;;;;;;49.60;27.63;;;;;;;26.28;37.90;99137.78;4692263;28;9999919;-62
2022/11/25 09:47:01;;;;;;;55.17;32.53;;;;;;;26.37;37.51;99137.91;5037573;28;20049;-63
2022/11/25 09:50:31;;;;;;;55.25;31.67;;;;;;;26.15;40.44;99138.63;5020317;28;20260;-63
2022/11/25 09:53:24;;;;;;;59.22;32.90;;;;;;;26.09;40.41;99139.84;5014361;28;20052;-63
2022/11/25 09:56:30;;;;;;;54.53;30.85;;;;;;;26.10;40.11;99138.72;5045213;28;20481;-66
2022/11/25 09:59:31;;;;;;;54.35;32.38;;;;;;;26.22;39.48;99135.47;5041370;28;20263;-63
2022/11/25 10:02:32;;;;;;;60.80;33.88;;;;;;;26.16;39.99;99132.00;5046375;28;20140;-64
2022/11/25 10:05:48;;;;;;;66.80;32.08;;;;;;;26.06;40.45;99135.75;5061549;28;20632;-62
2022/11/25 10:08:51;;;;;;;56.70;31.83;;;;;;;26.07;39.82;99136.59;5023256;28;20056;-63
2022/11/25 10:11:48;;;;;;;55.92;29.30;;;;;;;25.97;40.02;99138.44;5022796;28;20080;-62
2022/11/25 10:15:01;;;;;;;56.33;30.70;;;;;;;25.86;41.05;99133.41;5022768;28;20041;-62
2022/11/25 10:18:02;;;;;;;72.05;32.58;;;;;;;25.82;40.89;99133.19;5023807;28;20045;-63
2022/11/25 10:20:52;;;;;;;55.80;31.30;;;;;;;25.66;41.02;99132.69;5023527;28;20053;-64
2022/11/25 10:23:39;;;;;;;54.63;29.73;;;;;;;25.60;41.02;99139.38;5034029;28;20041;-66
2022/11/25 10:26:36;;;;;;;60.47;30.83;;;;;;;25.53;40.94;99128.78;5023137;28;20081;-63
2022/11/25 10:29:34;;;;;;;57.95;29.13;;;;;;;25.52;41.97;99132.66;5030164;28;20068;-62
2022/11/25 10:32:33;;;;;;;55.85;30.75;;;;;;;25.49;41.22;99138.78;5021060;28;20522;-63
2022/11/25 10:35:45;;;;;;;60.85;31.17;;;;;;;25.47;41.29;99130.00;5043502;28;20049;-63
2022/11/25 10:38:51;;;;;;;53.35;30.75;;;;;;;25.26;44.53;99131.47;5044792;28;20052;-64
2022/11/25 10:41:49;;;;;;;63.47;31.20;;;;;;;25.12;44.92;99129.47;5042805;28;20092;-64
2022/11/25 10:44:46;;;;;;;57.42;31.27;;;;;;;25.21;42.82;99126.84;5038133;28;20045;-63
2022/11/25 10:47:46;;;;;;;54.53;29.75;;;;;;;25.09;43.40;99119.09;5044136;28;20155;-64
2022/11/25 10:50:50;;;;;;;62.42;30.60;;;;;;;25.02;43.28;99118.66;5037484;28;20502;-66
2022/11/25 10:53:45;;;;;;;58.35;28.95;;;;;;;24.81;44.38;99113.47;5037783;28;20132;-62
2022/11/25 10:56:21;;;;;;;55.42;31.60;;;;;;;24.60;48.10;99112.16;5034508;28;20053;-64
2022/11/25 10:59:31;;;;;;;55.65;30.40;;;;;;;24.60;46.99;99112.16;5042419;28;20106;-68
2022/11/25 11:02:07;;;;;;;59.35;29.90;;;;;;;24.41;48.34;99110.19;5043572;28;20357;-68
2022/11/25 11:05:01;;;;;;;58.78;31.38;;;;;;;24.36;46.99;99106.72;5044632;28;20056;-66
2022/11/25 11:07:50;;;;;;;;;;;;;;;24.28;47.10;99105.44;5047577;28;20120;-64
2022/11/25 11:10:32;;;;;;;60.60;29.92;;;;;;;24.06;47.34;99113.41;5047017;28;19940;-64
2022/11/25 11:13:32;;;;;;;54.33;30.10;;;;;;;23.99;48.37;99113.78;5043021;28;20063;-60
2022/11/25 11:16:35;;;;;;;60.58;30.98;;;;;;;23.84;48.58;99115.56;5041704;28;20684;-62
2022/11/25 11:19:34;;;;;;;60.03;30.50;;;;;;;23.74;51.13;99114.88;5036147;28;20084;-62
2022/11/25 11:22:24;;;;;;;55.05;29.25;;;;;;;23.70;50.35;99109.16;5044368;28;20049;-64
2022/11/25 11:25:26;;;;;;;57.22;31.08;;;;;;;23.52;51.86;99105.25;5032370;28;20107;-63
2022/11/25 11:28:37;;;;;;;55.40;30.67;;;;;;;23.44;51.13;99105.84;5034610;28;20046;-62
2022/11/25 11:31:59;;;;;;;63.70;31.00;;;;;;;23.26;51.33;99116.44;5024807;28;20065;-61
2022/11/25 11:34:54;;;;;;;67.93;32.38;;;;;;;23.10;54.50;99108.63;5029679;28;20426;-61
2022/11/25 11:37:48;;;;;;;60.00;32.50;;;;;;;22.96;54.91;99105.72;5024259;28;20465;-59
2022/11/25 11:40:52;;;;;;;55.70;30.95;;;;;;;22.90;53.71;99104.13;5031639;28;20072;-60
2022/11/25 11:43:55;;;;;;;70.75;32.90;;;;;;;22.81;54.13;99099.25;5033992;28;20045;-60
2022/11/25 11:47:03;;;;;;;72.70;31.83;;;;;;;22.64;54.54;99096.94;5038194;28;20544;-65
2022/11/25 11:50:01;;;;;;;73.90;33.35;;;;;;;22.55;57.36;99106.03;5045661;28;20079;-62
2022/11/25 11:53:01;;;;;;;70.20;33.78;;;;;;;22.44;56.04;99106.06;5036147;28;20056;-65
2022/11/25 11:55:56;;;;;;;77.10;35.25;;;;;;;22.30;57.82;99105.06;5044073;28;20055;-62
2022/11/25 11:59:15;;;;;;;66.75;34.85;;;;;;;22.23;57.63;99104.53;5033442;28;20064;-66
2022/11/25 12:02:04;;;;;;;67.40;35.05;;;;;;;22.14;57.17;99107.00;4693917;28;9999899;-65
2022/11/25 12:05:15;;;;;;;80.15;37.55;;;;;;;22.07;58.26;99110.06;5042575;28;20164;-65
2022/11/25 12:08:08;;;;;;;86.68;36.40;;;;;;;22.00;58.42;99108.72;5035889;28;20053;-62
2022/11/25 12:11:20;;;;;;;67.20;35.72;;;;;;;21.97;57.96;99121.00;5039321;28;20136;-63
2022/11/25 12:14:25;;;;;;;74.18;39.92;;;;;;;21.86;58.47;99113.97;5032129;28;20040;-62
2022/11/25 12:17:39;;;;;;;73.75;37.30;;;;;;;21.80;57.80;99115.91;5034166;28;20870;-62
2022/11/25 12:20:55;;;;;;;79.20;39.92;;;;;;;21.72;58.63;99123.84;5018491;28;20527;-64
2022/11/25 12:23:46;;;;;;;77.70;39.50;;;;;;;21.66;59.28;99112.91;5035093;28;20060;-62
2022/11/25 12:26:35;;;;;;;80.88;40.58;;;;;;;21.64;60.10;99122.50;5025989;28;20096;-61
2022/11/25 12:29:56;;;;;;;80.28;41.22;;;;;;;21.59;59.92;99119.78;5040551;28;20143;-66
2022/11/25 12:32:41;;;;;;;81.57;40.03;;;;;;;21.51;59.02;99123.88;5012425;28;20047;-64
2022/11/25 12:35:57;;;;;;;82.22;43.10;;;;;;;21.45;59.26;99125.00;5040626;28;20072;-64
2022/11/25 12:38:46;;;;;;;93.63;44.90;;;;;;;21.35;59.40;99116.78;5038072;28;20473;-64
2022/11/25 12:42:00;;;;;;;92.90;43.88;;;;;;;21.33;59.77;99121.72;5039456;28;20052;-63
2022/11/25 12:45:06;;;;;;;86.85;42.45;;;;;;;21.35;59.91;99130.44;5037456;28;20052;-64
2022/11/25 12:47:56;;;;;;;95.22;47.13;;;;;;;21.26;60.44;99138.34;5031892;28;20089;-64
2022/11/25 12:50:58;;;;;;;91.63;47.05;;;;;;;21.19;59.57;99143.25;5043808;28;20860;-64
2022/11/25 12:54:11;;;;;;;96.70;48.67;;;;;;;21.16;59.41;99150.09;5040457;28;20052;-64
2022/11/25 12:57:28;;;;;;;89.15;47.53;;;;;;;21.18;60.33;99156.09;5030770;28;20073;-64
2022/11/25 13:00:30;;;;;;;97.53;46.30;;;;;;;21.09;60.61;99146.81;5039524;28;20045;-65
2022/11/25 13:03:40;;;;;;;88.03;47.28;;;;;;;21.05;60.75;99148.47;5037447;28;20045;-63
2022/11/25 13:06:18;;;;;;;99.85;46.88;;;;;;;21.01;60.92;99150.09;5040690;28;20053;-63
2022/11/25 13:09:20;;;;;;;101.78;48.45;;;;;;;20.86;60.63;99150.91;5026183;28;20091;-63
2022/11/25 13:12:09;;;;;;;97.15;47.30;;;;;;;20.80;61.30;99151.97;5030035;28;20123;-62
2022/11/25 13:15:01;;;;;;;93.28;48.55;;;;;;;20.79;61.79;99150.34;5043218;28;20609;-63